Pottersville, Indiana
Current Conditions -  °F | °C
As of 5:53 AM on Monday 20 Oct 2014 (Local Time) from KBMG Reporting Station
Broken Clouds Broken Clouds  
Wind Chill:   Ceiling: 11000
Heat Index:   Visibility: 10mi
Dew Point:   Wind: 5mph
Humidity: 83%   Direction: 190°S
Pressure: 29.99"   Gusts: NA
Location:  39.3008°N, 86.8112°W
Report Text: KBMG 200953Z AUTO 19004KT 10SM BKN110 09/07 A2999 RMK AO2 SLP154 T00940067
Loading
Personal Weather Stations






























Interactive Weather Map
Tropical Storm Tracking
New forecast layout! Learn more

10-Day Weather Forecast

Advertisements
Track Severe Weather on mobile